createdAt,value
2017-08-31T00:01:04.471Z,94.20
2017-08-31T00:03:32.112Z,94.50
2017-08-31T00:05:59.800Z,94.10
2017-08-31T00:08:27.595Z,94.10
2017-08-31T00:10:55.225Z,94.10
2017-08-31T00:13:22.927Z,93.90
2017-08-31T00:15:50.623Z,94.00
2017-08-31T00:18:19.000Z,94.10
2017-08-31T00:20:47.536Z,94.20
2017-08-31T00:23:16.112Z,94.40
2017-08-31T00:25:44.209Z,94.30
2017-08-31T00:28:13.047Z,94.30
2017-08-31T00:30:40.742Z,94.40
2017-08-31T00:33:08.972Z,94.30
2017-08-31T00:35:36.624Z,94.40
2017-08-31T00:38:04.300Z,94.50
2017-08-31T00:40:32.040Z,94.70
2017-08-31T00:42:59.678Z,94.50
2017-08-31T00:45:27.435Z,94.60
2017-08-31T00:47:55.115Z,94.50
2017-08-31T00:50:22.827Z,94.70
2017-08-31T00:52:50.603Z,94.90
2017-08-31T00:55:18.354Z,95.20
2017-08-31T00:57:46.033Z,95.40
2017-08-31T01:00:13.800Z,95.50
2017-08-31T01:02:41.461Z,95.70
2017-08-31T01:05:09.176Z,96.20
2017-08-31T01:07:36.936Z,96.10
2017-08-31T01:10:04.563Z,96.10
2017-08-31T01:12:32.194Z,96.20
2017-08-31T01:14:59.884Z,96.40
2017-08-31T01:17:27.543Z,96.60
2017-08-31T01:19:55.246Z,96.40
2017-08-31T01:22:22.967Z,96.60
2017-08-31T01:24:50.694Z,96.50
2017-08-31T01:27:18.407Z,96.60
2017-08-31T01:29:46.087Z,96.80
2017-08-31T01:32:13.767Z,96.20
2017-08-31T01:34:41.481Z,96.40
2017-08-31T01:37:10.047Z,96.40
2017-08-31T01:39:37.736Z,96.40
2017-08-31T01:42:06.337Z,96.50
2017-08-31T01:44:34.714Z,96.80
2017-08-31T01:47:03.168Z,96.90
2017-08-31T01:49:31.894Z,97.10
2017-08-31T01:52:00.320Z,97.00
2017-08-31T01:54:28.083Z,97.00
2017-08-31T01:56:55.732Z,97.30
2017-08-31T01:59:23.549Z,97.40
2017-08-31T02:01:51.196Z,97.60
2017-08-31T02:04:18.910Z,97.60
2017-08-31T02:06:46.651Z,97.70
2017-08-31T02:09:14.310Z,97.70
2017-08-31T02:11:41.922Z,98.00
2017-08-31T02:14:09.601Z,98.00
2017-08-31T02:16:37.240Z,97.90
2017-08-31T02:19:05.975Z,98.20
2017-08-31T02:21:33.759Z,98.50
2017-08-31T02:24:01.410Z,98.50
2017-08-31T02:26:29.157Z,98.70
2017-08-31T02:28:56.881Z,98.80
2017-08-31T02:31:24.523Z,99.10
2017-08-31T02:33:52.167Z,99.20
2017-08-31T02:36:19.928Z,99.20
2017-08-31T02:38:47.567Z,99.30
2017-08-31T02:41:15.264Z,99.40
2017-08-31T02:43:42.980Z,99.60
2017-08-31T02:46:10.614Z,99.90
2017-08-31T02:48:38.276Z,99.90
2017-08-31T02:51:05.936Z,99.90
2017-08-31T02:53:33.588Z,99.90
2017-08-31T02:56:01.196Z,99.90
2017-08-31T02:58:28.895Z,99.90
2017-08-31T03:00:56.526Z,99.90
2017-08-31T03:03:24.397Z,99.90
2017-08-31T03:05:52.857Z,99.60
2017-08-31T03:08:21.086Z,99.60
2017-08-31T03:10:49.534Z,99.90
2017-08-31T03:13:18.241Z,99.80
2017-08-31T03:15:46.242Z,99.90
2017-08-31T03:18:14.399Z,99.90
2017-08-31T03:20:42.092Z,99.90
2017-08-31T03:23:09.719Z,99.90
2017-08-31T03:25:37.361Z,99.90
2017-08-31T03:28:05.047Z,99.90
2017-08-31T03:30:32.681Z,99.90
2017-08-31T03:33:00.294Z,99.90
2017-08-31T03:35:28.007Z,99.90
2017-08-31T03:37:55.661Z,99.90
2017-08-31T03:40:23.312Z,99.90
2017-08-31T03:42:51.088Z,99.90
2017-08-31T03:45:18.754Z,99.90
2017-08-31T03:47:46.398Z,99.90
2017-08-31T03:50:14.100Z,99.90
2017-08-31T03:52:41.742Z,99.90
2017-08-31T03:55:09.355Z,99.90
2017-08-31T03:57:37.018Z,99.90
2017-08-31T04:00:04.654Z,99.90
2017-08-31T04:02:32.305Z,99.90
2017-08-31T04:04:59.970Z,99.90
2017-08-31T04:07:27.639Z,99.90
2017-08-31T04:09:55.270Z,99.90
2017-08-31T04:12:22.991Z,99.90
2017-08-31T04:14:50.618Z,99.90
2017-08-31T04:17:18.245Z,99.90
2017-08-31T04:19:45.945Z,99.90
2017-08-31T04:22:13.596Z,99.90
2017-08-31T04:24:41.223Z,99.90
2017-08-31T04:27:08.990Z,99.90
2017-08-31T04:29:37.341Z,99.90
2017-08-31T04:32:05.004Z,99.90
2017-08-31T04:34:33.221Z,99.90
2017-08-31T04:37:01.891Z,99.90
2017-08-31T04:39:29.938Z,99.90
2017-08-31T04:41:57.672Z,99.90
2017-08-31T04:44:25.307Z,99.90
2017-08-31T04:46:52.921Z,99.90
2017-08-31T04:49:20.703Z,99.90
2017-08-31T04:51:48.376Z,99.90
2017-08-31T04:54:16.016Z,99.90
2017-08-31T04:56:43.775Z,99.90
2017-08-31T04:59:11.446Z,99.90
2017-08-31T05:01:39.128Z,99.90
2017-08-31T05:04:06.839Z,99.90
2017-08-31T05:06:34.504Z,99.90
2017-08-31T05:09:02.215Z,99.90
2017-08-31T05:11:29.951Z,99.90
2017-08-31T05:13:57.667Z,99.90
2017-08-31T05:16:25.319Z,99.90
2017-08-31T05:18:53.210Z,99.90
2017-08-31T05:21:20.854Z,99.90
2017-08-31T05:23:48.643Z,99.90
2017-08-31T05:26:16.461Z,99.90
2017-08-31T05:28:44.198Z,99.90
2017-08-31T05:31:11.866Z,99.90
2017-08-31T05:33:39.638Z,99.90
2017-08-31T05:36:07.286Z,99.90
2017-08-31T05:38:34.947Z,99.90
2017-08-31T05:41:02.648Z,99.90
2017-08-31T05:43:30.331Z,99.90
2017-08-31T05:45:58.050Z,99.90
2017-08-31T05:48:25.780Z,99.90
2017-08-31T05:50:53.463Z,99.90
2017-08-31T05:53:21.140Z,99.90
2017-08-31T05:55:48.912Z,99.90
2017-08-31T05:58:18.237Z,99.90
2017-08-31T06:00:46.963Z,99.90
2017-08-31T06:03:16.138Z,99.80
2017-08-31T06:05:45.232Z,99.10
2017-08-31T06:08:14.200Z,98.40
2017-08-31T06:10:43.165Z,98.50
2017-08-31T06:13:10.832Z,98.00
2017-08-31T06:15:38.585Z,96.40
2017-08-31T06:18:06.276Z,96.10
2017-08-31T06:20:33.936Z,94.30
2017-08-31T06:23:01.554Z,92.80
2017-08-31T06:25:29.231Z,92.50
2017-08-31T06:27:56.840Z,92.20
2017-08-31T06:30:24.454Z,91.20
2017-08-31T06:32:52.084Z,90.40
2017-08-31T06:35:20.568Z,88.60
2017-08-31T06:37:48.211Z,88.60
2017-08-31T06:40:15.962Z,87.40
2017-08-31T06:42:43.578Z,88.30
2017-08-31T06:45:11.203Z,86.90
2017-08-31T06:47:38.852Z,84.70
2017-08-31T06:50:06.532Z,84.20
2017-08-31T06:52:34.146Z,83.50
2017-08-31T06:55:01.843Z,83.70
2017-08-31T06:57:29.460Z,81.00
2017-08-31T06:59:57.074Z,82.00
2017-08-31T07:02:24.741Z,79.60
2017-08-31T07:04:52.347Z,79.60
2017-08-31T07:07:19.957Z,78.00
2017-08-31T07:09:47.703Z,75.90
2017-08-31T07:12:15.309Z,75.70
2017-08-31T07:14:42.916Z,75.30
2017-08-31T07:17:10.574Z,73.80
2017-08-31T07:19:38.176Z,74.80
2017-08-31T07:22:05.780Z,74.40
2017-08-31T07:24:33.726Z,71.50
2017-08-31T07:27:01.410Z,71.60
2017-08-31T07:29:29.047Z,71.20
2017-08-31T07:31:56.814Z,70.00
2017-08-31T07:34:24.437Z,70.70
2017-08-31T07:36:52.136Z,70.50
2017-08-31T07:39:19.791Z,73.00
2017-08-31T07:41:47.401Z,74.40
2017-08-31T07:44:15.002Z,72.80
2017-08-31T07:46:42.647Z,70.80
2017-08-31T07:49:10.315Z,69.40
2017-08-31T07:51:37.929Z,67.20
2017-08-31T07:54:05.603Z,70.70
2017-08-31T07:56:33.202Z,69.30
2017-08-31T07:59:00.827Z,68.10
2017-08-31T08:01:28.556Z,63.60
2017-08-31T08:03:56.212Z,63.30
2017-08-31T08:06:23.830Z,62.50
2017-08-31T08:08:51.588Z,63.10
2017-08-31T08:11:19.187Z,61.40
2017-08-31T08:13:47.595Z,58.20
2017-08-31T08:16:15.262Z,58.10
2017-08-31T08:18:43.222Z,59.30
2017-08-31T08:21:11.453Z,58.80
2017-08-31T08:23:39.974Z,60.30
2017-08-31T08:26:08.631Z,60.40
2017-08-31T08:28:37.198Z,59.50
2017-08-31T08:31:04.850Z,58.70
2017-08-31T08:33:32.486Z,59.00
2017-08-31T08:36:00.155Z,60.20
2017-08-31T08:38:27.993Z,61.20
2017-08-31T08:40:55.622Z,62.90
2017-08-31T08:43:23.257Z,63.90
2017-08-31T08:45:51.116Z,63.70
2017-08-31T08:48:18.768Z,66.30
2017-08-31T08:50:46.440Z,67.20
2017-08-31T08:53:14.116Z,66.60
2017-08-31T08:55:41.764Z,66.00
2017-08-31T08:58:09.432Z,65.40
2017-08-31T09:00:37.115Z,64.60
2017-08-31T09:03:04.744Z,64.50
2017-08-31T09:05:32.377Z,65.00
2017-08-31T09:08:00.217Z,65.30
2017-08-31T09:10:27.879Z,65.20
2017-08-31T09:12:55.501Z,64.20
2017-08-31T09:15:23.204Z,65.40
2017-08-31T09:17:50.840Z,66.00
2017-08-31T09:20:18.498Z,66.30
2017-08-31T09:22:46.183Z,67.10
2017-08-31T09:25:13.889Z,68.00
2017-08-31T09:27:41.528Z,67.30
2017-08-31T09:30:09.228Z,67.20
2017-08-31T09:32:36.988Z,67.00
2017-08-31T09:35:04.626Z,66.80
2017-08-31T09:37:32.324Z,67.60
2017-08-31T09:39:59.948Z,68.50
2017-08-31T09:42:27.601Z,69.60
2017-08-31T09:44:55.366Z,72.10
2017-08-31T09:47:23.002Z,73.30
2017-08-31T09:49:50.653Z,74.30
2017-08-31T09:52:18.357Z,72.10
2017-08-31T09:54:46.001Z,70.40
2017-08-31T09:57:13.616Z,69.70
2017-08-31T09:59:41.319Z,68.50
2017-08-31T10:02:08.957Z,67.90
2017-08-31T10:04:36.600Z,67.80
2017-08-31T10:07:04.304Z,68.40
2017-08-31T10:09:31.947Z,69.90
2017-08-31T10:11:59.585Z,69.20
2017-08-31T10:14:27.448Z,69.70
2017-08-31T10:16:56.052Z,70.10
2017-08-31T10:19:23.726Z,70.00
2017-08-31T10:21:51.499Z,70.90
2017-08-31T10:24:19.137Z,71.80
2017-08-31T10:26:46.772Z,71.20
2017-08-31T10:29:14.516Z,71.30
2017-08-31T10:31:42.221Z,72.50
2017-08-31T10:34:09.889Z,71.80
2017-08-31T10:36:37.591Z,72.70
2017-08-31T10:39:05.280Z,73.10
2017-08-31T10:41:32.948Z,72.50
2017-08-31T10:44:00.668Z,72.50
2017-08-31T10:46:28.381Z,73.90
2017-08-31T10:48:56.060Z,75.00
2017-08-31T10:51:23.922Z,76.30
2017-08-31T10:53:51.593Z,77.60
2017-08-31T10:56:19.260Z,78.20
2017-08-31T10:58:46.993Z,79.10
2017-08-31T11:01:14.660Z,79.60
2017-08-31T11:03:42.347Z,80.80
2017-08-31T11:06:10.185Z,81.40
2017-08-31T11:08:37.878Z,81.90
2017-08-31T11:11:05.535Z,82.70
2017-08-31T11:13:33.256Z,82.80
2017-08-31T11:16:00.929Z,82.60
2017-08-31T11:18:28.599Z,83.10
2017-08-31T11:20:56.333Z,83.50
2017-08-31T11:23:23.996Z,83.80
2017-08-31T11:25:51.665Z,83.10
2017-08-31T11:28:19.457Z,83.50
2017-08-31T11:30:47.271Z,83.80
2017-08-31T11:33:14.963Z,82.30
2017-08-31T11:35:42.618Z,83.30
2017-08-31T11:38:10.220Z,84.20
2017-08-31T11:40:37.897Z,85.10
2017-08-31T11:43:05.596Z,86.30
2017-08-31T11:45:33.273Z,86.00
2017-08-31T11:48:00.908Z,87.30
2017-08-31T11:50:28.698Z,90.20
2017-08-31T11:52:56.348Z,90.80
2017-08-31T11:55:23.980Z,91.80
2017-08-31T11:57:51.667Z,93.40
2017-08-31T12:00:19.300Z,94.20
2017-08-31T12:02:46.955Z,96.20
2017-08-31T12:05:14.664Z,96.60
2017-08-31T12:07:42.293Z,98.30
2017-08-31T12:10:09.920Z,98.90
2017-08-31T12:12:37.692Z,97.30
2017-08-31T12:15:05.315Z,98.40
2017-08-31T12:17:32.948Z,98.90
2017-08-31T12:20:00.636Z,99.30
2017-08-31T12:22:28.269Z,99.40
2017-08-31T12:24:55.879Z,99.90
2017-08-31T12:27:23.567Z,98.60
2017-08-31T12:29:51.191Z,98.50
2017-08-31T12:32:18.841Z,98.90
2017-08-31T12:34:46.616Z,97.60
2017-08-31T12:37:14.277Z,98.10
2017-08-31T12:39:41.913Z,96.80
2017-08-31T12:42:10.610Z,97.60
2017-08-31T12:44:38.244Z,98.00
2017-08-31T12:47:05.876Z,97.90
2017-08-31T12:49:33.560Z,98.20
2017-08-31T12:52:01.187Z,98.10
2017-08-31T12:54:28.824Z,97.70
2017-08-31T12:56:56.583Z,97.60
2017-08-31T12:59:24.203Z,97.40
2017-08-31T13:01:51.839Z,97.90
2017-08-31T13:04:19.607Z,98.50
2017-08-31T13:06:47.234Z,98.40
2017-08-31T13:09:14.885Z,97.40
2017-08-31T13:11:42.566Z,97.30
2017-08-31T13:14:10.186Z,97.60
2017-08-31T13:16:37.822Z,97.80
2017-08-31T13:19:05.556Z,96.60
2017-08-31T13:21:33.284Z,96.00
2017-08-31T13:24:00.924Z,94.80
2017-08-31T13:26:28.695Z,94.30
2017-08-31T13:28:56.417Z,95.10
2017-08-31T13:31:24.087Z,95.00
2017-08-31T13:33:51.772Z,94.80
2017-08-31T13:36:19.392Z,94.30
2017-08-31T13:38:47.008Z,94.40
2017-08-31T13:41:14.685Z,94.20
2017-08-31T13:43:42.311Z,94.50
2017-08-31T13:46:09.942Z,94.80
2017-08-31T13:48:37.708Z,95.60
2017-08-31T13:51:05.348Z,95.00
2017-08-31T13:53:32.967Z,95.00
2017-08-31T13:56:00.659Z,95.40
2017-08-31T13:58:28.312Z,96.70
2017-08-31T14:00:55.932Z,97.20
2017-08-31T14:03:24.520Z,97.80
2017-08-31T14:05:52.143Z,98.60
2017-08-31T14:08:19.806Z,99.30
2017-08-31T14:10:47.480Z,99.90
2017-08-31T14:13:15.113Z,99.90
2017-08-31T14:15:42.760Z,99.90
2017-08-31T14:18:10.564Z,99.90
2017-08-31T14:20:38.203Z,99.90
2017-08-31T14:23:05.848Z,99.90
2017-08-31T14:25:33.617Z,99.90
2017-08-31T14:28:01.241Z,99.90
2017-08-31T14:30:28.941Z,99.90
2017-08-31T14:32:56.628Z,99.90
2017-08-31T14:35:24.259Z,99.90
2017-08-31T14:37:52.462Z,99.90
2017-08-31T14:40:20.159Z,99.90
2017-08-31T14:42:47.816Z,99.90
2017-08-31T14:45:15.468Z,99.90
2017-08-31T14:47:43.178Z,99.90
2017-08-31T14:50:10.818Z,99.90
2017-08-31T14:52:38.446Z,99.90
2017-08-31T14:55:06.139Z,99.90
2017-08-31T14:57:33.773Z,99.90
2017-08-31T15:00:01.422Z,99.90
2017-08-31T15:02:29.091Z,99.90
2017-08-31T15:04:56.748Z,96.80
2017-08-31T15:07:24.397Z,98.90
2017-08-31T15:09:52.093Z,99.90
2017-08-31T15:12:19.729Z,99.90
2017-08-31T15:14:47.365Z,99.90
2017-08-31T15:17:15.052Z,99.90
2017-08-31T15:19:42.744Z,99.90
2017-08-31T15:22:10.364Z,99.90
2017-08-31T15:24:38.137Z,99.90
2017-08-31T15:27:05.803Z,99.90
2017-08-31T15:29:33.437Z,99.90
2017-08-31T15:32:01.115Z,99.90
2017-08-31T15:34:28.759Z,99.90
2017-08-31T15:36:56.419Z,99.90
2017-08-31T15:39:24.084Z,99.90
2017-08-31T15:41:51.709Z,99.90
2017-08-31T15:44:19.316Z,99.90
2017-08-31T15:46:47.105Z,99.90
2017-08-31T15:49:14.759Z,99.90
2017-08-31T15:51:42.424Z,99.90
2017-08-31T15:54:10.087Z,99.90
2017-08-31T15:56:37.704Z,99.90
2017-08-31T15:59:05.387Z,99.90
2017-08-31T16:01:33.075Z,99.90
2017-08-31T16:04:00.716Z,99.90
2017-08-31T16:06:28.344Z,99.90
2017-08-31T16:08:56.067Z,99.90
2017-08-31T16:11:23.676Z,99.90
2017-08-31T16:13:51.316Z,99.90
2017-08-31T16:16:19.008Z,99.90
2017-08-31T16:18:46.636Z,99.90
2017-08-31T16:21:14.256Z,99.90
2017-08-31T16:23:41.945Z,99.90
2017-08-31T16:26:09.570Z,99.90
2017-08-31T16:28:37.201Z,99.90
2017-08-31T16:31:04.879Z,99.90
2017-08-31T16:33:32.527Z,99.90
2017-08-31T16:36:00.147Z,99.90
2017-08-31T16:38:27.835Z,99.90
2017-08-31T16:40:55.497Z,99.90
2017-08-31T16:43:23.155Z,99.90
2017-08-31T16:45:50.899Z,99.90
2017-08-31T16:48:18.564Z,99.90
2017-08-31T16:50:46.264Z,99.90
2017-08-31T16:53:14.035Z,99.90
2017-08-31T16:55:41.679Z,99.90
2017-08-31T16:58:09.344Z,99.90
2017-08-31T17:00:37.079Z,99.90
2017-08-31T17:03:04.724Z,99.90
2017-08-31T17:05:32.516Z,99.90
2017-08-31T17:08:00.252Z,99.90
2017-08-31T17:10:28.715Z,99.90
2017-08-31T17:12:56.371Z,99.90
2017-08-31T17:15:24.059Z,99.90
2017-08-31T17:17:51.744Z,99.90
2017-08-31T17:20:19.424Z,99.90
2017-08-31T17:22:47.114Z,99.90
2017-08-31T17:25:14.821Z,99.90
2017-08-31T17:27:43.304Z,99.90
2017-08-31T17:30:11.012Z,99.90
2017-08-31T17:32:38.719Z,99.90
2017-08-31T17:35:07.076Z,99.90
2017-08-31T17:37:34.916Z,99.90
2017-08-31T17:40:02.584Z,99.90
2017-08-31T17:42:30.248Z,99.90
2017-08-31T17:44:58.022Z,99.90
2017-08-31T17:47:25.688Z,99.90
2017-08-31T17:49:53.349Z,99.90
2017-08-31T17:52:21.064Z,99.90
2017-08-31T17:54:48.780Z,99.90
2017-08-31T17:57:16.539Z,99.90
2017-08-31T17:59:44.364Z,99.90
2017-08-31T18:02:12.075Z,99.90
2017-08-31T18:04:39.870Z,99.90
2017-08-31T18:07:07.654Z,99.90
2017-08-31T18:09:35.431Z,99.90
2017-08-31T18:12:03.292Z,99.90
2017-08-31T18:14:31.284Z,99.90
2017-08-31T18:16:59.172Z,99.90
2017-08-31T18:19:26.973Z,99.90
2017-08-31T18:21:54.918Z,99.90
2017-08-31T18:24:22.805Z,99.90
2017-08-31T18:26:50.659Z,99.90
2017-08-31T18:29:18.758Z,99.90
2017-08-31T18:31:46.602Z,99.90
2017-08-31T18:34:14.429Z,99.90
2017-08-31T18:36:42.336Z,99.90
2017-08-31T18:39:10.229Z,99.90
2017-08-31T18:41:37.973Z,99.90
2017-08-31T18:44:05.729Z,99.90
2017-08-31T18:46:33.400Z,99.90
2017-08-31T18:49:01.092Z,99.90
2017-08-31T18:51:29.013Z,99.90
2017-08-31T18:53:56.775Z,99.90
2017-08-31T18:56:24.517Z,99.90
2017-08-31T18:58:52.353Z,99.90
2017-08-31T19:01:20.113Z,99.90
2017-08-31T19:03:49.717Z,99.90
2017-08-31T19:06:17.545Z,99.90
2017-08-31T19:08:45.211Z,99.90
2017-08-31T19:11:12.969Z,99.90
2017-08-31T19:13:40.825Z,99.90
2017-08-31T19:16:08.621Z,99.90
2017-08-31T19:18:37.223Z,99.90
2017-08-31T19:21:05.005Z,99.90
2017-08-31T19:23:32.717Z,99.90
2017-08-31T19:26:00.479Z,99.90
2017-08-31T19:28:28.401Z,99.90
2017-08-31T19:30:56.164Z,99.90
2017-08-31T19:33:24.056Z,99.90
2017-08-31T19:35:51.989Z,99.90
2017-08-31T19:38:19.837Z,99.90
2017-08-31T19:40:47.699Z,99.90
2017-08-31T19:43:15.564Z,99.90
2017-08-31T19:45:44.651Z,99.90
2017-08-31T19:48:12.551Z,99.90
2017-08-31T19:50:40.513Z,99.90
2017-08-31T19:53:09.478Z,99.90
2017-08-31T19:55:37.205Z,99.90
2017-08-31T19:58:04.980Z,99.90
2017-08-31T20:00:33.617Z,99.90
2017-08-31T20:03:01.291Z,99.90
2017-08-31T20:05:29.191Z,99.90
2017-08-31T20:07:56.935Z,99.90
2017-08-31T20:10:24.610Z,99.90
2017-08-31T20:12:52.379Z,99.90
2017-08-31T20:15:20.060Z,99.90
2017-08-31T20:17:47.720Z,99.90
2017-08-31T20:20:15.545Z,99.90
2017-08-31T20:22:43.192Z,99.90
2017-08-31T20:25:10.867Z,99.90
2017-08-31T20:27:38.629Z,99.90
2017-08-31T20:30:06.377Z,99.90
2017-08-31T20:32:34.159Z,99.90
2017-08-31T20:35:01.813Z,99.90
2017-08-31T20:37:29.450Z,99.90
2017-08-31T20:39:57.116Z,99.90
2017-08-31T20:42:24.834Z,99.90
2017-08-31T20:44:52.484Z,99.90
2017-08-31T20:47:20.123Z,99.90
2017-08-31T20:49:47.811Z,99.90
2017-08-31T20:52:15.463Z,99.90
2017-08-31T20:54:43.103Z,99.90
2017-08-31T20:57:10.784Z,99.90
2017-08-31T20:59:38.426Z,99.90
2017-08-31T21:02:06.083Z,99.90
2017-08-31T21:04:33.792Z,99.90
2017-08-31T21:07:01.557Z,99.90
2017-08-31T21:09:31.149Z,99.90
2017-08-31T21:11:58.875Z,99.90
2017-08-31T21:14:26.567Z,99.90
2017-08-31T21:16:54.402Z,99.90
2017-08-31T21:19:22.320Z,99.90
2017-08-31T21:21:50.179Z,99.90
2017-08-31T21:24:18.728Z,99.90
2017-08-31T21:26:48.315Z,99.90
2017-08-31T21:29:17.128Z,99.90
2017-08-31T21:31:46.148Z,99.90
2017-08-31T21:34:16.002Z,99.90
2017-08-31T21:36:44.373Z,99.90
2017-08-31T21:39:12.461Z,99.90
2017-08-31T21:41:40.631Z,99.90
2017-08-31T21:44:09.240Z,99.90
2017-08-31T21:49:13.216Z,99.90
2017-08-31T21:51:41.580Z,99.90
2017-08-31T21:54:09.312Z,99.90
2017-08-31T21:56:37.081Z,99.90
2017-08-31T21:59:04.793Z,99.90
2017-08-31T22:01:32.444Z,99.90
2017-08-31T22:04:00.602Z,99.90
2017-08-31T22:06:28.237Z,99.90
2017-08-31T22:08:55.903Z,99.90
2017-08-31T22:11:23.597Z,99.90
2017-08-31T22:13:51.257Z,99.90
2017-08-31T22:16:18.934Z,99.90
2017-08-31T22:18:46.623Z,99.90
2017-08-31T22:21:14.264Z,99.90
2017-08-31T22:23:41.915Z,99.90
2017-08-31T22:26:09.625Z,99.90
2017-08-31T22:28:37.266Z,99.90
2017-08-31T22:31:04.944Z,99.90
2017-08-31T22:33:32.704Z,99.90
2017-08-31T22:36:00.411Z,99.90
2017-08-31T22:38:28.046Z,99.90
2017-08-31T22:40:55.741Z,99.90
2017-08-31T22:43:23.428Z,99.90
2017-08-31T22:45:51.099Z,99.90
2017-08-31T22:48:18.936Z,99.90
2017-08-31T22:50:46.596Z,99.90
2017-08-31T22:53:15.356Z,99.90
2017-08-31T22:55:44.996Z,99.90
2017-08-31T22:58:16.335Z,99.90
2017-08-31T23:00:45.613Z,99.90
2017-08-31T23:03:13.327Z,99.90
2017-08-31T23:05:40.972Z,99.90
2017-08-31T23:08:08.706Z,99.90
2017-08-31T23:10:36.352Z,99.90
2017-08-31T23:13:04.007Z,99.90
2017-08-31T23:15:31.797Z,99.90
2017-08-31T23:17:59.444Z,99.90
2017-08-31T23:20:27.091Z,99.90
2017-08-31T23:22:54.805Z,99.90
2017-08-31T23:25:22.468Z,99.90
2017-08-31T23:27:50.146Z,99.90
2017-08-31T23:30:18.000Z,99.90
2017-08-31T23:32:45.676Z,99.90
2017-08-31T23:35:13.323Z,99.90
2017-08-31T23:37:41.037Z,99.90
2017-08-31T23:40:08.717Z,99.90
2017-08-31T23:42:36.360Z,99.90
2017-08-31T23:45:04.176Z,99.90
2017-08-31T23:47:31.808Z,99.90
2017-08-31T23:49:59.484Z,99.90
2017-08-31T23:52:27.199Z,99.90
2017-08-31T23:54:54.831Z,99.90
2017-08-31T23:57:22.469Z,99.90
2017-08-31T23:59:50.141Z,99.90
